sensor_id;sensor_type;location;lat;lon;timestamp;P1;durP1;ratioP1;P2;durP2;ratioP2
52642;SDS011;38531;53.296;6.614;2023-05-10T00:02:21;4.77;;;3.70;;
52642;SDS011;38531;53.296;6.614;2023-05-10T00:04:46;4.88;;;3.80;;
52642;SDS011;38531;53.296;6.614;2023-05-10T00:07:12;6.00;;;4.63;;
52642;SDS011;38531;53.296;6.614;2023-05-10T00:09:38;5.05;;;3.42;;
52642;SDS011;38531;53.296;6.614;2023-05-10T00:12:03;4.55;;;3.55;;
52642;SDS011;38531;53.296;6.614;2023-05-10T00:14:29;4.13;;;2.85;;
52642;SDS011;38531;53.296;6.614;2023-05-10T00:16:55;5.70;;;4.47;;
52642;SDS011;38531;53.296;6.614;2023-05-10T00:19:21;5.47;;;4.00;;
52642;SDS011;38531;53.296;6.614;2023-05-10T00:21:46;4.68;;;3.45;;
52642;SDS011;38531;53.296;6.614;2023-05-10T00:24:12;4.72;;;3.33;;
52642;SDS011;38531;53.296;6.614;2023-05-10T00:26:38;3.97;;;3.17;;
52642;SDS011;38531;53.296;6.614;2023-05-10T00:29:05;4.55;;;3.13;;
52642;SDS011;38531;53.296;6.614;2023-05-10T00:31:30;3.92;;;3.03;;
52642;SDS011;38531;53.296;6.614;2023-05-10T00:33:56;4.05;;;2.30;;
52642;SDS011;38531;53.296;6.614;2023-05-10T00:36:22;5.43;;;3.03;;
52642;SDS011;38531;53.296;6.614;2023-05-10T00:38:47;5.28;;;3.33;;
52642;SDS011;38531;53.296;6.614;2023-05-10T00:41:13;3.78;;;2.33;;
52642;SDS011;38531;53.296;6.614;2023-05-10T00:43:39;4.55;;;3.30;;
52642;SDS011;38531;53.296;6.614;2023-05-10T00:46:04;5.18;;;3.33;;
52642;SDS011;38531;53.296;6.614;2023-05-10T00:48:31;5.45;;;3.35;;
52642;SDS011;38531;53.296;6.614;2023-05-10T00:50:57;5.63;;;3.22;;
52642;SDS011;38531;53.296;6.614;2023-05-10T00:53:23;5.40;;;3.45;;
52642;SDS011;38531;53.296;6.614;2023-05-10T00:55:49;4.72;;;3.17;;
52642;SDS011;38531;53.296;6.614;2023-05-10T00:58:16;3.60;;;2.60;;
52642;SDS011;38531;53.296;6.614;2023-05-10T01:00:42;4.65;;;2.85;;
52642;SDS011;38531;53.296;6.614;2023-05-10T01:03:10;3.45;;;2.45;;
52642;SDS011;38531;53.296;6.614;2023-05-10T01:05:36;4.57;;;2.78;;
52642;SDS011;38531;53.296;6.614;2023-05-10T01:08:03;3.97;;;2.55;;
52642;SDS011;38531;53.296;6.614;2023-05-10T01:10:29;3.78;;;2.55;;
52642;SDS011;38531;53.296;6.614;2023-05-10T01:12:55;3.42;;;2.33;;
52642;SDS011;38531;53.296;6.614;2023-05-10T01:15:21;3.83;;;2.83;;
52642;SDS011;38531;53.296;6.614;2023-05-10T01:17:48;3.72;;;2.88;;
52642;SDS011;38531;53.296;6.614;2023-05-10T01:20:14;4.32;;;2.28;;
52642;SDS011;38531;53.296;6.614;2023-05-10T01:28:22;3.40;;;2.28;;
52642;SDS011;38531;53.296;6.614;2023-05-10T01:31:17;6.35;;;3.45;;
52642;SDS011;38531;53.296;6.614;2023-05-10T01:34:13;4.40;;;3.05;;
52642;SDS011;38531;53.296;6.614;2023-05-10T01:36:48;4.55;;;3.00;;
52642;SDS011;38531;53.296;6.614;2023-05-10T01:39:44;4.93;;;3.33;;
52642;SDS011;38531;53.296;6.614;2023-05-10T01:42:16;4.38;;;3.03;;
52642;SDS011;38531;53.296;6.614;2023-05-10T01:44:56;5.05;;;2.83;;
52642;SDS011;38531;53.296;6.614;2023-05-10T01:50:29;4.00;;;2.85;;
52642;SDS011;38531;53.296;6.614;2023-05-10T01:52:57;3.90;;;2.92;;
52642;SDS011;38531;53.296;6.614;2023-05-10T01:55:27;5.45;;;3.28;;
52642;SDS011;38531;53.296;6.614;2023-05-10T01:57:58;4.30;;;3.10;;
52642;SDS011;38531;53.296;6.614;2023-05-10T02:00:31;4.80;;;3.28;;
52642;SDS011;38531;53.296;6.614;2023-05-10T02:02:58;4.85;;;3.58;;
52642;SDS011;38531;53.296;6.614;2023-05-10T02:05:27;4.18;;;3.20;;
52642;SDS011;38531;53.296;6.614;2023-05-10T02:07:55;4.45;;;2.85;;
52642;SDS011;38531;53.296;6.614;2023-05-10T02:10:22;4.68;;;2.75;;
52642;SDS011;38531;53.296;6.614;2023-05-10T02:12:47;3.92;;;2.55;;
52642;SDS011;38531;53.296;6.614;2023-05-10T02:15:19;3.97;;;2.47;;
52642;SDS011;38531;53.296;6.614;2023-05-10T02:17:50;4.10;;;2.80;;
52642;SDS011;38531;53.296;6.614;2023-05-10T02:20:19;4.05;;;2.72;;
52642;SDS011;38531;53.296;6.614;2023-05-10T02:22:46;3.50;;;2.83;;
52642;SDS011;38531;53.296;6.614;2023-05-10T02:25:14;4.28;;;2.70;;
52642;SDS011;38531;53.296;6.614;2023-05-10T02:27:42;3.47;;;2.17;;
52642;SDS011;38531;53.296;6.614;2023-05-10T02:30:09;4.53;;;2.70;;
52642;SDS011;38531;53.296;6.614;2023-05-10T02:32:36;4.88;;;3.33;;
52642;SDS011;38531;53.296;6.614;2023-05-10T02:35:03;4.45;;;2.47;;
52642;SDS011;38531;53.296;6.614;2023-05-10T02:37:32;4.05;;;2.92;;
52642;SDS011;38531;53.296;6.614;2023-05-10T02:39:59;4.00;;;3.28;;
52642;SDS011;38531;53.296;6.614;2023-05-10T02:42:29;2.88;;;2.33;;
52642;SDS011;38531;53.296;6.614;2023-05-10T02:45:02;4.05;;;3.00;;
52642;SDS011;38531;53.296;6.614;2023-05-10T02:47:32;3.10;;;2.33;;
52642;SDS011;38531;53.296;6.614;2023-05-10T02:49:58;2.67;;;2.08;;
52642;SDS011;38531;53.296;6.614;2023-05-10T02:52:25;3.85;;;3.10;;
52642;SDS011;38531;53.296;6.614;2023-05-10T02:54:58;4.13;;;3.13;;
52642;SDS011;38531;53.296;6.614;2023-05-10T02:57:34;4.00;;;2.85;;
52642;SDS011;38531;53.296;6.614;2023-05-10T03:00:03;3.90;;;2.55;;
52642;SDS011;38531;53.296;6.614;2023-05-10T03:02:30;4.00;;;2.45;;
52642;SDS011;38531;53.296;6.614;2023-05-10T03:04:56;4.65;;;2.47;;
52642;SDS011;38531;53.296;6.614;2023-05-10T03:07:21;3.85;;;2.50;;
52642;SDS011;38531;53.296;6.614;2023-05-10T03:09:48;3.70;;;2.45;;
52642;SDS011;38531;53.296;6.614;2023-05-10T03:18:02;4.53;;;2.67;;
52642;SDS011;38531;53.296;6.614;2023-05-10T03:20:35;5.82;;;3.20;;
52642;SDS011;38531;53.296;6.614;2023-05-10T03:23:13;5.60;;;3.83;;
52642;SDS011;38531;53.296;6.614;2023-05-10T03:25:47;6.03;;;3.75;;
52642;SDS011;38531;53.296;6.614;2023-05-10T03:28:15;6.57;;;4.28;;
52642;SDS011;38531;53.296;6.614;2023-05-10T03:30:45;6.70;;;4.20;;
52642;SDS011;38531;53.296;6.614;2023-05-10T03:33:11;5.50;;;3.08;;
52642;SDS011;38531;53.296;6.614;2023-05-10T03:35:38;8.52;;;4.22;;
52642;SDS011;38531;53.296;6.614;2023-05-10T03:38:04;7.25;;;3.60;;
52642;SDS011;38531;53.296;6.614;2023-05-10T03:40:30;7.47;;;3.90;;
52642;SDS011;38531;53.296;6.614;2023-05-10T03:42:57;6.13;;;3.53;;
52642;SDS011;38531;53.296;6.614;2023-05-10T03:45:24;7.97;;;4.07;;
52642;SDS011;38531;53.296;6.614;2023-05-10T03:47:49;5.78;;;3.45;;
52642;SDS011;38531;53.296;6.614;2023-05-10T03:50:15;5.07;;;2.90;;
52642;SDS011;38531;53.296;6.614;2023-05-10T03:52:41;4.90;;;2.90;;
52642;SDS011;38531;53.296;6.614;2023-05-10T03:55:07;6.20;;;3.50;;
52642;SDS011;38531;53.296;6.614;2023-05-10T03:57:33;5.30;;;2.85;;
52642;SDS011;38531;53.296;6.614;2023-05-10T03:59:59;4.65;;;2.85;;
52642;SDS011;38531;53.296;6.614;2023-05-10T04:02:25;5.95;;;3.20;;
52642;SDS011;38531;53.296;6.614;2023-05-10T04:04:51;5.85;;;3.20;;
52642;SDS011;38531;53.296;6.614;2023-05-10T04:07:16;7.72;;;4.50;;
52642;SDS011;38531;53.296;6.614;2023-05-10T04:09:43;6.03;;;3.83;;
52642;SDS011;38531;53.296;6.614;2023-05-10T04:15:49;5.13;;;3.35;;
52642;SDS011;38531;53.296;6.614;2023-05-10T04:18:15;4.22;;;2.83;;
52642;SDS011;38531;53.296;6.614;2023-05-10T04:20:42;5.95;;;3.05;;
52642;SDS011;38531;53.296;6.614;2023-05-10T04:23:07;4.10;;;2.65;;
52642;SDS011;38531;53.296;6.614;2023-05-10T04:25:34;4.00;;;2.30;;
52642;SDS011;38531;53.296;6.614;2023-05-10T04:28:00;3.45;;;2.78;;
52642;SDS011;38531;53.296;6.614;2023-05-10T04:30:26;3.92;;;2.63;;
52642;SDS011;38531;53.296;6.614;2023-05-10T04:32:53;5.90;;;2.38;;
52642;SDS011;38531;53.296;6.614;2023-05-10T04:35:19;4.10;;;2.30;;
52642;SDS011;38531;53.296;6.614;2023-05-10T04:37:44;3.40;;;2.08;;
52642;SDS011;38531;53.296;6.614;2023-05-10T04:40:10;3.95;;;2.30;;
52642;SDS011;38531;53.296;6.614;2023-05-10T04:42:36;6.55;;;2.72;;
52642;SDS011;38531;53.296;6.614;2023-05-10T04:45:04;2.70;;;2.13;;
52642;SDS011;38531;53.296;6.614;2023-05-10T04:47:31;1.90;;;1.50;;
52642;SDS011;38531;53.296;6.614;2023-05-10T04:49:57;2.63;;;1.58;;
52642;SDS011;38531;53.296;6.614;2023-05-10T04:52:23;2.28;;;1.80;;
52642;SDS011;38531;53.296;6.614;2023-05-10T04:54:51;2.50;;;1.88;;
52642;SDS011;38531;53.296;6.614;2023-05-10T05:01:04;5.60;;;2.50;;
52642;SDS011;38531;53.296;6.614;2023-05-10T05:03:34;2.22;;;1.95;;
52642;SDS011;38531;53.296;6.614;2023-05-10T05:06:00;2.83;;;1.80;;
52642;SDS011;38531;53.296;6.614;2023-05-10T05:08:26;2.42;;;1.90;;
52642;SDS011;38531;53.296;6.614;2023-05-10T05:10:51;1.85;;;1.50;;
52642;SDS011;38531;53.296;6.614;2023-05-10T05:13:17;3.40;;;1.95;;
52642;SDS011;38531;53.296;6.614;2023-05-10T05:15:43;2.13;;;1.45;;
52642;SDS011;38531;53.296;6.614;2023-05-10T05:18:09;2.33;;;1.90;;
52642;SDS011;38531;53.296;6.614;2023-05-10T05:20:35;2.08;;;1.88;;
52642;SDS011;38531;53.296;6.614;2023-05-10T05:23:01;2.53;;;1.98;;
52642;SDS011;38531;53.296;6.614;2023-05-10T05:25:27;1.90;;;1.55;;
52642;SDS011;38531;53.296;6.614;2023-05-10T05:27:52;1.67;;;1.30;;
52642;SDS011;38531;53.296;6.614;2023-05-10T05:30:18;1.90;;;1.55;;
52642;SDS011;38531;53.296;6.614;2023-05-10T05:32:44;1.58;;;1.38;;
52642;SDS011;38531;53.296;6.614;2023-05-10T05:35:11;1.88;;;1.45;;
52642;SDS011;38531;53.296;6.614;2023-05-10T05:37:37;1.85;;;1.25;;
52642;SDS011;38531;53.296;6.614;2023-05-10T05:40:03;2.08;;;1.10;;
52642;SDS011;38531;53.296;6.614;2023-05-10T05:42:30;1.88;;;1.27;;
52642;SDS011;38531;53.296;6.614;2023-05-10T05:44:56;1.15;;;1.00;;
52642;SDS011;38531;53.296;6.614;2023-05-10T05:47:22;1.27;;;1.00;;
52642;SDS011;38531;53.296;6.614;2023-05-10T05:49:50;1.02;;;0.90;;
52642;SDS011;38531;53.296;6.614;2023-05-10T05:52:17;0.77;;;0.75;;
52642;SDS011;38531;53.296;6.614;2023-05-10T05:54:44;0.85;;;0.70;;
52642;SDS011;38531;53.296;6.614;2023-05-10T06:00:50;0.40;;;0.40;;
52642;SDS011;38531;53.296;6.614;2023-05-10T06:03:19;0.55;;;0.30;;
52642;SDS011;38531;53.296;6.614;2023-05-10T06:05:48;0.30;;;0.30;;
52642;SDS011;38531;53.296;6.614;2023-05-10T06:08:14;0.35;;;0.30;;
52642;SDS011;38531;53.296;6.614;2023-05-10T06:10:40;0.25;;;0.20;;
52642;SDS011;38531;53.296;6.614;2023-05-10T06:13:06;0.28;;;0.20;;
52642;SDS011;38531;53.296;6.614;2023-05-10T06:15:31;0.70;;;0.65;;
52642;SDS011;38531;53.296;6.614;2023-05-10T06:17:57;0.30;;;0.30;;
52642;SDS011;38531;53.296;6.614;2023-05-10T06:20:23;0.35;;;0.30;;
52642;SDS011;38531;53.296;6.614;2023-05-10T06:22:49;0.30;;;0.30;;
52642;SDS011;38531;53.296;6.614;2023-05-10T06:25:15;1.95;;;0.70;;
52642;SDS011;38531;53.296;6.614;2023-05-10T06:27:43;0.95;;;0.60;;
52642;SDS011;38531;53.296;6.614;2023-05-10T06:30:09;1.00;;;0.88;;
52642;SDS011;38531;53.296;6.614;2023-05-10T06:32:35;1.00;;;0.90;;
52642;SDS011;38531;53.296;6.614;2023-05-10T06:35:01;1.38;;;1.13;;
52642;SDS011;38531;53.296;6.614;2023-05-10T06:37:26;1.73;;;1.27;;
52642;SDS011;38531;53.296;6.614;2023-05-10T06:39:52;2.13;;;1.70;;
52642;SDS011;38531;53.296;6.614;2023-05-10T06:42:18;5.80;;;3.78;;
52642;SDS011;38531;53.296;6.614;2023-05-10T06:44:43;4.38;;;3.47;;
52642;SDS011;38531;53.296;6.614;2023-05-10T06:47:09;6.32;;;5.03;;
52642;SDS011;38531;53.296;6.614;2023-05-10T06:49:35;6.35;;;4.32;;
52642;SDS011;38531;53.296;6.614;2023-05-10T06:52:02;7.47;;;5.68;;
52642;SDS011;38531;53.296;6.614;2023-05-10T06:54:27;7.15;;;5.78;;
52642;SDS011;38531;53.296;6.614;2023-05-10T06:56:53;5.97;;;4.63;;
52642;SDS011;38531;53.296;6.614;2023-05-10T06:59:19;4.78;;;4.07;;
52642;SDS011;38531;53.296;6.614;2023-05-10T07:01:46;4.25;;;3.63;;
52642;SDS011;38531;53.296;6.614;2023-05-10T07:04:12;5.03;;;3.58;;
52642;SDS011;38531;53.296;6.614;2023-05-10T07:06:38;2.70;;;2.38;;
52642;SDS011;38531;53.296;6.614;2023-05-10T07:09:04;3.22;;;2.88;;
52642;SDS011;38531;53.296;6.614;2023-05-10T07:11:30;2.60;;;2.30;;
52642;SDS011;38531;53.296;6.614;2023-05-10T07:13:56;2.30;;;1.80;;
52642;SDS011;38531;53.296;6.614;2023-05-10T07:16:21;2.13;;;1.85;;
52642;SDS011;38531;53.296;6.614;2023-05-10T07:18:47;1.88;;;1.67;;
52642;SDS011;38531;53.296;6.614;2023-05-10T07:21:13;3.20;;;2.10;;
52642;SDS011;38531;53.296;6.614;2023-05-10T07:23:38;2.80;;;1.90;;
52642;SDS011;38531;53.296;6.614;2023-05-10T07:26:04;2.53;;;2.00;;
52642;SDS011;38531;53.296;6.614;2023-05-10T07:28:30;2.38;;;1.92;;
52642;SDS011;38531;53.296;6.614;2023-05-10T07:30:55;3.65;;;2.47;;
52642;SDS011;38531;53.296;6.614;2023-05-10T07:33:21;3.22;;;2.20;;
52642;SDS011;38531;53.296;6.614;2023-05-10T07:35:47;1.85;;;1.67;;
52642;SDS011;38531;53.296;6.614;2023-05-10T07:38:12;5.22;;;1.92;;
52642;SDS011;38531;53.296;6.614;2023-05-10T07:40:39;2.63;;;1.98;;
52642;SDS011;38531;53.296;6.614;2023-05-10T07:43:04;3.63;;;1.70;;
52642;SDS011;38531;53.296;6.614;2023-05-10T07:45:30;2.22;;;1.90;;
52642;SDS011;38531;53.296;6.614;2023-05-10T07:47:56;2.53;;;2.20;;
52642;SDS011;38531;53.296;6.614;2023-05-10T07:50:22;2.13;;;1.77;;
52642;SDS011;38531;53.296;6.614;2023-05-10T07:52:47;1.80;;;1.35;;
52642;SDS011;38531;53.296;6.614;2023-05-10T07:55:13;1.67;;;1.48;;
52642;SDS011;38531;53.296;6.614;2023-05-10T07:57:39;1.67;;;1.17;;
52642;SDS011;38531;53.296;6.614;2023-05-10T08:00:05;2.08;;;1.73;;
52642;SDS011;38531;53.296;6.614;2023-05-10T08:02:32;2.35;;;1.95;;
52642;SDS011;38531;53.296;6.614;2023-05-10T08:05:00;2.22;;;1.85;;
52642;SDS011;38531;53.296;6.614;2023-05-10T08:07:25;2.17;;;1.80;;
52642;SDS011;38531;53.296;6.614;2023-05-10T08:09:51;3.00;;;2.20;;
52642;SDS011;38531;53.296;6.614;2023-05-10T08:12:17;2.45;;;1.92;;
52642;SDS011;38531;53.296;6.614;2023-05-10T08:14:42;1.63;;;1.42;;
52642;SDS011;38531;53.296;6.614;2023-05-10T08:17:08;2.33;;;1.50;;
52642;SDS011;38531;53.296;6.614;2023-05-10T08:19:34;1.27;;;1.00;;
52642;SDS011;38531;53.296;6.614;2023-05-10T08:21:59;2.55;;;1.38;;
52642;SDS011;38531;53.296;6.614;2023-05-10T08:24:25;2.28;;;1.52;;
52642;SDS011;38531;53.296;6.614;2023-05-10T08:26:51;2.45;;;1.38;;
52642;SDS011;38531;53.296;6.614;2023-05-10T08:29:17;3.88;;;2.00;;
52642;SDS011;38531;53.296;6.614;2023-05-10T08:31:42;2.30;;;1.60;;
52642;SDS011;38531;53.296;6.614;2023-05-10T08:34:08;2.40;;;1.42;;
52642;SDS011;38531;53.296;6.614;2023-05-10T08:36:34;2.80;;;1.45;;
52642;SDS011;38531;53.296;6.614;2023-05-10T08:38:59;1.88;;;1.10;;
52642;SDS011;38531;53.296;6.614;2023-05-10T08:41:25;1.88;;;1.15;;
52642;SDS011;38531;53.296;6.614;2023-05-10T08:43:54;1.65;;;1.05;;
52642;SDS011;38531;53.296;6.614;2023-05-10T08:46:22;1.70;;;1.05;;
52642;SDS011;38531;53.296;6.614;2023-05-10T08:48:48;1.50;;;1.00;;
52642;SDS011;38531;53.296;6.614;2023-05-10T08:51:19;1.33;;;0.95;;
52642;SDS011;38531;53.296;6.614;2023-05-10T08:53:48;2.35;;;0.80;;
52642;SDS011;38531;53.296;6.614;2023-05-10T08:56:15;0.68;;;0.50;;
52642;SDS011;38531;53.296;6.614;2023-05-10T08:58:41;0.65;;;0.30;;
52642;SDS011;38531;53.296;6.614;2023-05-10T09:01:07;0.85;;;0.38;;
52642;SDS011;38531;53.296;6.614;2023-05-10T09:03:34;1.25;;;0.50;;
52642;SDS011;38531;53.296;6.614;2023-05-10T09:06:03;0.60;;;0.50;;
52642;SDS011;38531;53.296;6.614;2023-05-10T09:08:30;1.05;;;0.50;;
52642;SDS011;38531;53.296;6.614;2023-05-10T09:10:56;1.00;;;0.50;;
52642;SDS011;38531;53.296;6.614;2023-05-10T09:13:22;1.10;;;0.68;;
52642;SDS011;38531;53.296;6.614;2023-05-10T09:15:49;1.10;;;0.73;;
52642;SDS011;38531;53.296;6.614;2023-05-10T09:18:15;1.85;;;0.80;;
52642;SDS011;38531;53.296;6.614;2023-05-10T09:20:41;1.75;;;0.80;;
52642;SDS011;38531;53.296;6.614;2023-05-10T09:23:07;0.80;;;0.60;;
52642;SDS011;38531;53.296;6.614;2023-05-10T09:25:33;2.45;;;1.00;;
52642;SDS011;38531;53.296;6.614;2023-05-10T09:27:59;3.45;;;1.50;;
52642;SDS011;38531;53.296;6.614;2023-05-10T09:30:26;1.33;;;0.80;;
52642;SDS011;38531;53.296;6.614;2023-05-10T09:32:56;3.25;;;1.40;;
52642;SDS011;38531;53.296;6.614;2023-05-10T09:35:24;2.92;;;1.20;;
52642;SDS011;38531;53.296;6.614;2023-05-10T09:37:52;4.95;;;1.50;;
52642;SDS011;38531;53.296;6.614;2023-05-10T09:40:20;2.85;;;1.20;;
52642;SDS011;38531;53.296;6.614;2023-05-10T09:42:57;2.30;;;1.70;;
52642;SDS011;38531;53.296;6.614;2023-05-10T09:45:25;2.90;;;1.60;;
52642;SDS011;38531;53.296;6.614;2023-05-10T09:47:52;2.92;;;1.50;;
52642;SDS011;38531;53.296;6.614;2023-05-10T09:50:18;2.63;;;1.50;;
52642;SDS011;38531;53.296;6.614;2023-05-10T09:55:16;1.20;;;1.08;;
52642;SDS011;38531;53.296;6.614;2023-05-10T09:57:43;3.03;;;1.48;;
52642;SDS011;38531;53.296;6.614;2023-05-10T10:00:09;1.58;;;1.13;;
52642;SDS011;38531;53.296;6.614;2023-05-10T10:02:35;1.65;;;1.00;;
52642;SDS011;38531;53.296;6.614;2023-05-10T10:05:01;0.85;;;0.80;;
52642;SDS011;38531;53.296;6.614;2023-05-10T10:07:28;1.40;;;0.90;;
52642;SDS011;38531;53.296;6.614;2023-05-10T10:09:54;1.20;;;0.80;;
52642;SDS011;38531;53.296;6.614;2023-05-10T10:12:20;1.30;;;1.00;;
52642;SDS011;38531;53.296;6.614;2023-05-10T10:14:46;1.58;;;0.70;;
52642;SDS011;38531;53.296;6.614;2023-05-10T10:17:13;1.77;;;0.90;;
52642;SDS011;38531;53.296;6.614;2023-05-10T10:19:39;0.95;;;0.70;;
52642;SDS011;38531;53.296;6.614;2023-05-10T10:22:06;1.10;;;0.70;;
52642;SDS011;38531;53.296;6.614;2023-05-10T10:24:32;1.02;;;0.68;;
52642;SDS011;38531;53.296;6.614;2023-05-10T10:27:09;1.40;;;0.80;;
52642;SDS011;38531;53.296;6.614;2023-05-10T10:29:50;1.10;;;0.70;;
52642;SDS011;38531;53.296;6.614;2023-05-10T10:32:29;1.15;;;0.63;;
52642;SDS011;38531;53.296;6.614;2023-05-10T10:35:10;1.15;;;0.55;;
52642;SDS011;38531;53.296;6.614;2023-05-10T10:37:46;1.10;;;0.50;;
52642;SDS011;38531;53.296;6.614;2023-05-10T10:40:25;2.20;;;0.40;;
52642;SDS011;38531;53.296;6.614;2023-05-10T10:42:53;0.70;;;0.40;;
52642;SDS011;38531;53.296;6.614;2023-05-10T10:45:19;0.52;;;0.45;;
52642;SDS011;38531;53.296;6.614;2023-05-10T10:47:46;0.93;;;0.57;;
52642;SDS011;38531;53.296;6.614;2023-05-10T10:50:12;1.50;;;0.63;;
52642;SDS011;38531;53.296;6.614;2023-05-10T10:52:39;0.90;;;0.50;;
52642;SDS011;38531;53.296;6.614;2023-05-10T10:55:16;1.60;;;0.70;;
52642;SDS011;38531;53.296;6.614;2023-05-10T10:57:44;2.17;;;0.80;;
52642;SDS011;38531;53.296;6.614;2023-05-10T11:02:47;2.78;;;1.40;;
52642;SDS011;38531;53.296;6.614;2023-05-10T11:13:28;4.72;;;2.00;;
52642;SDS011;38531;53.296;6.614;2023-05-10T11:15:59;4.15;;;1.98;;
52642;SDS011;38531;53.296;6.614;2023-05-10T11:18:38;3.40;;;1.60;;
52642;SDS011;38531;53.296;6.614;2023-05-10T11:21:04;3.00;;;1.40;;
52642;SDS011;38531;53.296;6.614;2023-05-10T11:26:10;3.83;;;2.35;;
52642;SDS011;38531;53.296;6.614;2023-05-10T11:31:09;4.00;;;1.58;;
52642;SDS011;38531;53.296;6.614;2023-05-10T11:33:47;8.77;;;3.50;;
52642;SDS011;38531;53.296;6.614;2023-05-10T11:36:15;4.55;;;2.50;;
52642;SDS011;38531;53.296;6.614;2023-05-10T11:38:42;5.72;;;2.53;;
52642;SDS011;38531;53.296;6.614;2023-05-10T11:41:09;6.88;;;2.17;;
52642;SDS011;38531;53.296;6.614;2023-05-10T11:43:36;5.30;;;3.17;;
52642;SDS011;38531;53.296;6.614;2023-05-10T11:46:07;5.72;;;2.70;;
52642;SDS011;38531;53.296;6.614;2023-05-10T11:48:35;6.07;;;3.40;;
52642;SDS011;38531;53.296;6.614;2023-05-10T11:51:01;3.92;;;2.72;;
52642;SDS011;38531;53.296;6.614;2023-05-10T11:53:28;8.60;;;4.30;;
52642;SDS011;38531;53.296;6.614;2023-05-10T11:56:01;5.05;;;2.88;;
52642;SDS011;38531;53.296;6.614;2023-05-10T11:58:31;5.25;;;2.75;;
52642;SDS011;38531;53.296;6.614;2023-05-10T12:01:01;4.10;;;2.53;;
52642;SDS011;38531;53.296;6.614;2023-05-10T12:03:28;5.20;;;2.72;;
52642;SDS011;38531;53.296;6.614;2023-05-10T12:05:54;4.55;;;2.53;;
52642;SDS011;38531;53.296;6.614;2023-05-10T12:08:25;5.13;;;2.20;;
52642;SDS011;38531;53.296;6.614;2023-05-10T12:10:52;5.57;;;3.03;;
52642;SDS011;38531;53.296;6.614;2023-05-10T12:13:19;5.75;;;3.10;;
52642;SDS011;38531;53.296;6.614;2023-05-10T12:15:46;4.72;;;2.80;;
52642;SDS011;38531;53.296;6.614;2023-05-10T12:18:12;6.93;;;2.85;;
52642;SDS011;38531;53.296;6.614;2023-05-10T12:20:39;5.18;;;3.72;;
52642;SDS011;38531;53.296;6.614;2023-05-10T12:23:07;6.85;;;3.63;;
52642;SDS011;38531;53.296;6.614;2023-05-10T12:25:38;6.32;;;3.45;;
52642;SDS011;38531;53.296;6.614;2023-05-10T12:28:05;5.50;;;3.83;;
52642;SDS011;38531;53.296;6.614;2023-05-10T12:30:34;10.20;;;4.22;;
52642;SDS011;38531;53.296;6.614;2023-05-10T12:33:02;8.52;;;3.90;;
52642;SDS011;38531;53.296;6.614;2023-05-10T12:35:45;4.93;;;3.15;;
52642;SDS011;38531;53.296;6.614;2023-05-10T12:41:01;6.90;;;4.43;;
52642;SDS011;38531;53.296;6.614;2023-05-10T12:43:28;8.65;;;4.93;;
52642;SDS011;38531;53.296;6.614;2023-05-10T12:45:54;7.68;;;4.30;;
52642;SDS011;38531;53.296;6.614;2023-05-10T12:48:21;9.18;;;4.05;;
52642;SDS011;38531;53.296;6.614;2023-05-10T12:50:47;5.60;;;2.72;;
52642;SDS011;38531;53.296;6.614;2023-05-10T12:53:16;6.75;;;3.55;;
52642;SDS011;38531;53.296;6.614;2023-05-10T12:55:42;6.80;;;4.03;;
52642;SDS011;38531;53.296;6.614;2023-05-10T12:58:08;6.88;;;3.22;;
52642;SDS011;38531;53.296;6.614;2023-05-10T13:00:34;3.88;;;2.40;;
52642;SDS011;38531;53.296;6.614;2023-05-10T13:03:03;7.65;;;3.78;;
52642;SDS011;38531;53.296;6.614;2023-05-10T13:05:32;6.25;;;3.30;;
52642;SDS011;38531;53.296;6.614;2023-05-10T13:07:58;6.15;;;2.85;;
52642;SDS011;38531;53.296;6.614;2023-05-10T13:10:23;5.95;;;2.72;;
52642;SDS011;38531;53.296;6.614;2023-05-10T13:12:50;5.20;;;2.38;;
52642;SDS011;38531;53.296;6.614;2023-05-10T13:15:16;6.03;;;2.33;;
52642;SDS011;38531;53.296;6.614;2023-05-10T13:17:41;4.55;;;2.47;;
52642;SDS011;38531;53.296;6.614;2023-05-10T13:20:08;5.80;;;2.85;;
52642;SDS011;38531;53.296;6.614;2023-05-10T13:22:37;4.40;;;2.45;;
52642;SDS011;38531;53.296;6.614;2023-05-10T13:25:02;4.50;;;2.42;;
52642;SDS011;38531;53.296;6.614;2023-05-10T13:27:28;4.80;;;2.40;;
52642;SDS011;38531;53.296;6.614;2023-05-10T13:29:54;4.82;;;2.30;;
52642;SDS011;38531;53.296;6.614;2023-05-10T13:32:20;2.42;;;1.60;;
52642;SDS011;38531;53.296;6.614;2023-05-10T13:34:46;3.95;;;2.00;;
52642;SDS011;38531;53.296;6.614;2023-05-10T13:37:11;3.15;;;1.90;;
52642;SDS011;38531;53.296;6.614;2023-05-10T13:39:37;3.85;;;1.92;;
52642;SDS011;38531;53.296;6.614;2023-05-10T13:42:03;4.53;;;1.38;;
52642;SDS011;38531;53.296;6.614;2023-05-10T13:44:29;7.85;;;1.80;;
52642;SDS011;38531;53.296;6.614;2023-05-10T13:46:55;3.83;;;1.55;;
52642;SDS011;38531;53.296;6.614;2023-05-10T13:49:21;4.70;;;1.80;;
52642;SDS011;38531;53.296;6.614;2023-05-10T13:51:47;4.15;;;1.27;;
52642;SDS011;38531;53.296;6.614;2023-05-10T13:54:13;3.63;;;1.70;;
52642;SDS011;38531;53.296;6.614;2023-05-10T13:56:39;2.10;;;1.20;;
52642;SDS011;38531;53.296;6.614;2023-05-10T13:59:06;1.95;;;1.20;;
52642;SDS011;38531;53.296;6.614;2023-05-10T14:01:32;4.50;;;1.90;;
52642;SDS011;38531;53.296;6.614;2023-05-10T14:03:59;2.08;;;1.13;;
52642;SDS011;38531;53.296;6.614;2023-05-10T14:06:24;2.72;;;1.40;;
52642;SDS011;38531;53.296;6.614;2023-05-10T14:08:52;3.72;;;1.27;;
52642;SDS011;38531;53.296;6.614;2023-05-10T14:11:18;5.13;;;1.60;;
52642;SDS011;38531;53.296;6.614;2023-05-10T14:13:44;5.38;;;1.83;;
52642;SDS011;38531;53.296;6.614;2023-05-10T14:16:10;8.23;;;2.65;;
52642;SDS011;38531;53.296;6.614;2023-05-10T14:18:36;5.45;;;2.80;;
52642;SDS011;38531;53.296;6.614;2023-05-10T14:21:02;7.72;;;3.50;;
52642;SDS011;38531;53.296;6.614;2023-05-10T14:23:29;3.67;;;2.15;;
52642;SDS011;38531;53.296;6.614;2023-05-10T14:25:55;5.88;;;3.00;;
52642;SDS011;38531;53.296;6.614;2023-05-10T14:28:20;7.85;;;5.35;;
52642;SDS011;38531;53.296;6.614;2023-05-10T14:30:47;8.38;;;5.05;;
52642;SDS011;38531;53.296;6.614;2023-05-10T14:33:13;9.05;;;6.03;;
52642;SDS011;38531;53.296;6.614;2023-05-10T14:35:39;13.02;;;6.43;;
52642;SDS011;38531;53.296;6.614;2023-05-10T14:38:04;11.48;;;5.90;;
52642;SDS011;38531;53.296;6.614;2023-05-10T14:40:30;9.88;;;5.97;;
52642;SDS011;38531;53.296;6.614;2023-05-10T14:42:56;11.05;;;6.65;;
52642;SDS011;38531;53.296;6.614;2023-05-10T14:45:21;9.65;;;5.50;;
52642;SDS011;38531;53.296;6.614;2023-05-10T14:47:48;8.95;;;5.07;;
52642;SDS011;38531;53.296;6.614;2023-05-10T14:50:15;10.10;;;6.45;;
52642;SDS011;38531;53.296;6.614;2023-05-10T14:52:42;9.32;;;6.18;;
52642;SDS011;38531;53.296;6.614;2023-05-10T14:55:08;10.77;;;6.70;;
52642;SDS011;38531;53.296;6.614;2023-05-10T14:57:34;10.07;;;6.20;;
52642;SDS011;38531;53.296;6.614;2023-05-10T15:00:00;10.50;;;6.25;;
52642;SDS011;38531;53.296;6.614;2023-05-10T15:02:26;10.00;;;6.40;;
52642;SDS011;38531;53.296;6.614;2023-05-10T15:04:51;9.50;;;5.28;;
52642;SDS011;38531;53.296;6.614;2023-05-10T15:07:17;9.80;;;6.25;;
52642;SDS011;38531;53.296;6.614;2023-05-10T15:09:44;10.98;;;6.20;;
52642;SDS011;38531;53.296;6.614;2023-05-10T15:12:10;8.07;;;5.22;;
52642;SDS011;38531;53.296;6.614;2023-05-10T15:14:36;8.38;;;4.95;;
52642;SDS011;38531;53.296;6.614;2023-05-10T15:17:01;9.20;;;5.30;;
52642;SDS011;38531;53.296;6.614;2023-05-10T15:19:27;8.13;;;4.93;;
52642;SDS011;38531;53.296;6.614;2023-05-10T15:21:54;5.53;;;3.53;;
52642;SDS011;38531;53.296;6.614;2023-05-10T15:24:20;10.23;;;3.72;;
52642;SDS011;38531;53.296;6.614;2023-05-10T15:26:47;4.70;;;2.58;;
52642;SDS011;38531;53.296;6.614;2023-05-10T15:29:12;4.18;;;2.97;;
52642;SDS011;38531;53.296;6.614;2023-05-10T15:31:49;3.20;;;2.35;;
52642;SDS011;38531;53.296;6.614;2023-05-10T15:34:16;2.65;;;1.55;;
52642;SDS011;38531;53.296;6.614;2023-05-10T15:36:43;5.07;;;2.15;;